createdAt,value
2023-04-30T00:02:04.641Z,13.14
2023-04-30T00:04:33.896Z,13.11
2023-04-30T00:07:02.162Z,13.08
2023-04-30T00:09:30.222Z,13.04
2023-04-30T00:11:58.537Z,13.06
2023-04-30T00:14:27.925Z,13.04
2023-04-30T00:16:56.032Z,12.98
2023-04-30T00:19:26.423Z,13.00
2023-04-30T00:21:54.508Z,13.01
2023-04-30T00:24:22.610Z,13.07
2023-04-30T00:26:50.864Z,13.05
2023-04-30T00:29:19.274Z,13.02
2023-04-30T00:31:49.014Z,12.91
2023-04-30T00:34:20.025Z,12.98
2023-04-30T00:36:47.999Z,12.99
2023-04-30T00:39:16.614Z,12.92
2023-04-30T00:41:45.936Z,12.75
2023-04-30T00:44:13.920Z,12.72
2023-04-30T00:46:41.915Z,12.80
2023-04-30T00:49:11.536Z,12.80
2023-04-30T00:51:42.071Z,12.72
2023-04-30T00:54:10.857Z,12.69
2023-04-30T00:56:38.931Z,12.61
2023-04-30T00:59:07.222Z,12.62
2023-04-30T01:01:35.754Z,12.69
2023-04-30T01:04:04.003Z,12.60
2023-04-30T01:06:33.975Z,12.57
2023-04-30T01:09:03.119Z,12.58
2023-04-30T01:11:41.548Z,12.64
2023-04-30T01:14:14.643Z,12.61
2023-04-30T01:16:48.766Z,12.62
2023-04-30T01:19:32.756Z,12.58
2023-04-30T01:22:05.607Z,12.53
2023-04-30T01:24:50.218Z,12.45
2023-04-30T01:27:31.570Z,12.39
2023-04-30T01:30:04.595Z,12.30
2023-04-30T01:32:32.668Z,12.20
2023-04-30T01:35:03.082Z,12.04
2023-04-30T01:37:41.806Z,12.04
2023-04-30T01:40:23.194Z,11.98
2023-04-30T01:43:01.120Z,11.92
2023-04-30T01:45:48.653Z,11.83
2023-04-30T01:48:26.741Z,11.80
2023-04-30T01:51:03.185Z,11.71
2023-04-30T01:53:36.581Z,11.75
2023-04-30T01:56:11.048Z,11.69
2023-04-30T01:58:39.682Z,11.64
2023-04-30T02:01:09.551Z,11.58
2023-04-30T02:03:37.920Z,11.60
2023-04-30T02:06:06.105Z,11.51
2023-04-30T02:08:34.161Z,11.47
2023-04-30T02:11:02.527Z,11.47
2023-04-30T02:13:30.705Z,11.45
2023-04-30T02:15:58.720Z,11.40
2023-04-30T02:18:28.410Z,11.37
2023-04-30T02:20:56.508Z,11.28
2023-04-30T02:23:24.606Z,11.30
2023-04-30T02:25:52.868Z,11.30
2023-04-30T02:28:20.883Z,11.23
2023-04-30T02:30:49.000Z,11.20
2023-04-30T02:33:17.995Z,11.04
2023-04-30T02:35:47.653Z,11.18
2023-04-30T02:38:15.791Z,11.29
2023-04-30T02:40:44.055Z,11.10
2023-04-30T02:43:12.123Z,11.23
2023-04-30T02:45:40.098Z,11.26
2023-04-30T02:48:08.573Z,11.26
2023-04-30T02:50:36.701Z,11.18
2023-04-30T02:53:06.141Z,11.21
2023-04-30T02:55:34.574Z,11.14
2023-04-30T02:58:02.989Z,11.28
2023-04-30T03:00:31.153Z,11.22
2023-04-30T03:02:59.795Z,11.14
2023-04-30T03:05:29.462Z,11.16
2023-04-30T03:07:57.399Z,11.12
2023-04-30T03:10:27.394Z,11.09
2023-04-30T03:12:55.543Z,11.00
2023-04-30T03:15:23.554Z,11.03
2023-04-30T03:17:51.892Z,10.91
2023-04-30T03:20:20.137Z,11.07
2023-04-30T03:22:48.111Z,11.00
2023-04-30T03:25:16.920Z,10.84
2023-04-30T03:27:46.452Z,10.97
2023-04-30T03:30:14.820Z,11.05
2023-04-30T03:32:43.418Z,11.07
2023-04-30T03:35:12.009Z,11.02
2023-04-30T03:37:40.185Z,11.10
2023-04-30T03:40:09.981Z,11.04
2023-04-30T03:42:38.122Z,11.00
2023-04-30T03:45:09.045Z,11.00
2023-04-30T03:47:37.843Z,10.96
2023-04-30T03:50:07.417Z,10.89
2023-04-30T03:52:36.782Z,10.91
2023-04-30T03:55:06.209Z,10.86
2023-04-30T03:57:34.511Z,10.83
2023-04-30T04:00:04.438Z,10.97
2023-04-30T04:02:42.680Z,10.81
2023-04-30T04:05:11.959Z,10.70
2023-04-30T04:07:40.456Z,10.67
2023-04-30T04:10:09.366Z,10.77
2023-04-30T04:12:37.707Z,10.76
2023-04-30T04:15:06.676Z,10.84
2023-04-30T04:17:34.808Z,10.77
2023-04-30T04:20:06.258Z,10.81
2023-04-30T04:22:36.244Z,10.94
2023-04-30T04:25:04.806Z,10.90
2023-04-30T04:27:33.399Z,10.99
2023-04-30T04:30:01.946Z,11.04
2023-04-30T04:32:30.638Z,11.04
2023-04-30T04:34:59.595Z,11.13
2023-04-30T04:37:29.207Z,11.11
2023-04-30T04:39:57.809Z,10.96
2023-04-30T04:42:26.295Z,11.16
2023-04-30T04:44:54.408Z,11.10
2023-04-30T04:47:22.948Z,11.12
2023-04-30T04:49:51.351Z,11.09
2023-04-30T04:52:19.557Z,11.14
2023-04-30T04:54:49.251Z,11.14
2023-04-30T04:57:17.329Z,11.32
2023-04-30T04:59:45.330Z,11.25
2023-04-30T05:02:13.619Z,11.32
2023-04-30T05:04:41.956Z,11.46
2023-04-30T05:07:10.029Z,11.43
2023-04-30T05:09:38.371Z,11.49
2023-04-30T05:12:07.913Z,11.52
2023-04-30T05:14:37.237Z,11.43
2023-04-30T05:17:05.505Z,11.65
2023-04-30T05:19:33.792Z,11.64
2023-04-30T05:22:02.516Z,11.51
2023-04-30T05:24:31.199Z,11.77
2023-04-30T05:26:59.367Z,11.75
2023-04-30T05:29:28.893Z,11.76
2023-04-30T05:31:57.309Z,11.82
2023-04-30T05:34:25.363Z,11.98
2023-04-30T05:36:53.360Z,12.03
2023-04-30T05:39:21.714Z,12.05
2023-04-30T05:41:50.715Z,12.07
2023-04-30T05:44:19.876Z,12.02
2023-04-30T05:46:49.560Z,11.94
2023-04-30T05:49:17.555Z,12.00
2023-04-30T05:51:45.726Z,12.11
2023-04-30T05:54:14.040Z,12.25
2023-04-30T05:56:42.211Z,12.43
2023-04-30T05:59:10.302Z,12.32
2023-04-30T06:01:39.049Z,12.36
2023-04-30T06:04:09.381Z,12.35
2023-04-30T06:06:37.547Z,12.52
2023-04-30T06:09:05.692Z,12.69
2023-04-30T06:11:34.154Z,12.66
2023-04-30T06:14:05.426Z,12.89
2023-04-30T06:16:34.044Z,12.94
2023-04-30T06:19:02.108Z,13.05
2023-04-30T06:21:31.924Z,13.12
2023-04-30T06:24:00.256Z,12.96
2023-04-30T06:26:28.537Z,13.35
2023-04-30T06:28:56.975Z,13.13
2023-04-30T06:31:25.524Z,13.41
2023-04-30T06:33:56.894Z,13.55
2023-04-30T06:36:25.283Z,13.67
2023-04-30T06:38:55.098Z,13.65
2023-04-30T06:41:23.285Z,14.05
2023-04-30T06:43:51.663Z,14.25
2023-04-30T06:46:20.305Z,14.39
2023-04-30T06:48:48.423Z,14.63
2023-04-30T06:51:16.708Z,14.47
2023-04-30T06:53:44.988Z,14.43
2023-04-30T06:56:14.417Z,14.72
2023-04-30T06:58:42.651Z,14.84
2023-04-30T07:01:10.951Z,15.13
2023-04-30T07:03:39.165Z,14.99
2023-04-30T07:06:07.300Z,15.17
2023-04-30T07:08:35.780Z,15.40
2023-04-30T07:11:03.990Z,15.23
2023-04-30T07:13:33.394Z,15.57
2023-04-30T07:16:01.868Z,15.39
2023-04-30T07:18:30.196Z,15.48
2023-04-30T07:20:58.731Z,15.67
2023-04-30T07:23:28.475Z,15.88
2023-04-30T07:25:58.697Z,16.06
2023-04-30T07:28:27.849Z,16.14
2023-04-30T07:30:58.810Z,15.96
2023-04-30T07:33:30.577Z,16.09
2023-04-30T07:35:59.041Z,16.48
2023-04-30T07:38:27.834Z,16.42
2023-04-30T07:40:56.025Z,16.18
2023-04-30T07:43:24.918Z,16.64
2023-04-30T07:45:54.394Z,16.87
2023-04-30T07:48:24.063Z,17.09
2023-04-30T07:50:53.124Z,16.72
2023-04-30T07:53:21.664Z,17.09
2023-04-30T07:55:49.724Z,17.13
2023-04-30T07:58:18.644Z,17.10
2023-04-30T08:00:47.119Z,17.26
2023-04-30T08:03:15.505Z,17.44
2023-04-30T08:05:46.284Z,17.27
2023-04-30T08:08:16.504Z,17.16
2023-04-30T08:10:45.126Z,17.28
2023-04-30T08:13:13.112Z,17.16
2023-04-30T08:15:42.433Z,17.40
2023-04-30T08:18:11.049Z,17.48
2023-04-30T08:20:39.280Z,17.45
2023-04-30T08:23:08.900Z,17.50
2023-04-30T08:25:37.949Z,17.80
2023-04-30T08:28:07.656Z,17.76
2023-04-30T08:30:35.793Z,18.03
2023-04-30T08:33:04.152Z,18.11
2023-04-30T08:35:32.398Z,18.25
2023-04-30T08:38:00.432Z,18.55
2023-04-30T08:40:49.417Z,18.28
2023-04-30T08:43:19.387Z,17.96
2023-04-30T08:45:48.501Z,18.00
2023-04-30T08:48:17.572Z,18.19
2023-04-30T08:50:45.965Z,18.34
2023-04-30T08:53:17.406Z,18.42
2023-04-30T08:55:47.698Z,18.58
2023-04-30T08:58:16.063Z,18.79
2023-04-30T09:00:44.536Z,18.85
2023-04-30T09:03:12.851Z,19.09
2023-04-30T09:05:41.818Z,19.30
2023-04-30T09:08:10.021Z,19.20
2023-04-30T09:10:38.373Z,18.93
2023-04-30T09:13:09.595Z,19.11
2023-04-30T09:15:41.659Z,19.29
2023-04-30T09:18:12.707Z,19.23
2023-04-30T09:20:56.359Z,19.25
2023-04-30T09:23:25.148Z,18.97
2023-04-30T09:25:53.505Z,19.32
2023-04-30T09:28:27.336Z,19.47
2023-04-30T09:30:57.888Z,19.22
2023-04-30T09:33:25.993Z,19.15
2023-04-30T09:35:54.257Z,19.08
2023-04-30T09:38:30.333Z,19.34
2023-04-30T09:41:00.082Z,19.43
2023-04-30T09:43:30.063Z,19.53
2023-04-30T09:46:00.638Z,19.86
2023-04-30T09:48:29.390Z,20.09
2023-04-30T09:50:57.749Z,19.73
2023-04-30T09:53:26.023Z,20.05
2023-04-30T09:55:56.252Z,20.31
2023-04-30T09:58:30.240Z,20.19
2023-04-30T10:01:02.616Z,20.29
2023-04-30T10:03:33.439Z,20.45
2023-04-30T10:06:02.059Z,19.97
2023-04-30T10:08:34.987Z,20.10
2023-04-30T10:11:05.202Z,20.28
2023-04-30T10:13:39.925Z,20.23
2023-04-30T10:16:18.697Z,20.48
2023-04-30T10:18:51.743Z,20.40
2023-04-30T10:21:23.758Z,20.35
2023-04-30T10:23:52.691Z,20.65
2023-04-30T10:26:21.275Z,20.84
2023-04-30T10:28:51.556Z,20.86
2023-04-30T10:31:21.136Z,20.94
2023-04-30T10:33:59.424Z,21.09
2023-04-30T10:36:38.700Z,21.21
2023-04-30T10:39:07.234Z,21.27
2023-04-30T10:41:35.626Z,21.51
2023-04-30T10:44:06.461Z,21.66
2023-04-30T10:46:36.368Z,21.23
2023-04-30T10:49:05.424Z,21.34
2023-04-30T10:51:48.438Z,21.36
2023-04-30T10:54:21.147Z,21.39
2023-04-30T10:56:49.196Z,21.38
2023-04-30T10:59:19.429Z,21.54
2023-04-30T11:01:59.598Z,21.80
2023-04-30T11:04:28.929Z,21.41
2023-04-30T11:07:04.646Z,21.70
2023-04-30T11:09:42.377Z,21.33
2023-04-30T11:12:16.162Z,21.39
2023-04-30T11:14:47.156Z,21.50
2023-04-30T11:17:23.594Z,21.47
2023-04-30T11:19:54.904Z,21.81
2023-04-30T11:22:25.441Z,21.74
2023-04-30T11:25:06.096Z,21.90
2023-04-30T11:27:35.711Z,21.85
2023-04-30T11:30:12.097Z,21.85
2023-04-30T11:32:41.207Z,21.84
2023-04-30T11:35:10.789Z,21.85
2023-04-30T11:37:40.836Z,21.63
2023-04-30T11:40:11.203Z,21.74
2023-04-30T11:42:41.189Z,21.90
2023-04-30T11:45:13.594Z,21.84
2023-04-30T11:47:46.641Z,21.98
2023-04-30T11:50:16.909Z,22.00
2023-04-30T11:52:50.864Z,22.29
2023-04-30T11:55:22.412Z,22.32
2023-04-30T11:57:53.161Z,22.43
2023-04-30T12:00:26.864Z,22.68
2023-04-30T12:02:56.920Z,22.34
2023-04-30T12:05:26.954Z,22.34
2023-04-30T12:07:57.216Z,22.58
2023-04-30T12:10:26.015Z,22.62
2023-04-30T12:12:54.746Z,22.48
2023-04-30T12:15:26.992Z,22.32
2023-04-30T12:17:57.192Z,22.30
2023-04-30T12:20:28.314Z,22.57
2023-04-30T12:22:57.018Z,22.51
2023-04-30T12:25:25.787Z,22.42
2023-04-30T12:27:54.507Z,22.48
2023-04-30T12:30:26.829Z,22.83
2023-04-30T12:32:58.771Z,22.93
2023-04-30T12:35:31.048Z,23.08
2023-04-30T12:38:04.644Z,22.54
2023-04-30T12:40:33.416Z,22.74
2023-04-30T12:43:03.442Z,22.58
2023-04-30T12:45:47.503Z,22.76
2023-04-30T12:48:17.184Z,22.83
2023-04-30T12:50:49.448Z,23.01
2023-04-30T12:53:17.847Z,22.88
2023-04-30T12:55:45.917Z,22.90
2023-04-30T12:58:16.588Z,23.15
2023-04-30T13:00:48.122Z,23.13
2023-04-30T13:03:17.689Z,23.19
2023-04-30T13:05:49.426Z,23.35
2023-04-30T13:08:18.215Z,23.49
2023-04-30T13:10:47.179Z,23.80
2023-04-30T13:13:17.032Z,23.83
2023-04-30T13:15:46.429Z,23.53
2023-04-30T13:18:15.865Z,23.69
2023-04-30T13:20:44.696Z,23.96
2023-04-30T13:23:13.078Z,24.11
2023-04-30T13:25:42.756Z,23.79
2023-04-30T13:28:11.166Z,23.82
2023-04-30T13:30:39.169Z,23.80
2023-04-30T13:33:08.968Z,23.99
2023-04-30T13:35:37.079Z,24.10
2023-04-30T13:38:05.035Z,24.30
2023-04-30T13:40:33.414Z,24.04
2023-04-30T13:43:02.050Z,24.05
2023-04-30T13:45:30.596Z,24.16
2023-04-30T13:47:59.055Z,23.96
2023-04-30T13:50:28.611Z,24.28
2023-04-30T13:52:59.201Z,24.25
2023-04-30T13:55:27.629Z,24.43
2023-04-30T13:57:55.683Z,24.42
2023-04-30T14:00:23.762Z,24.54
2023-04-30T14:02:52.145Z,24.49
2023-04-30T14:05:20.213Z,24.56
2023-04-30T14:07:49.592Z,24.74
2023-04-30T14:10:17.992Z,24.90
2023-04-30T14:12:46.147Z,24.86
2023-04-30T14:15:14.765Z,25.04
2023-04-30T14:17:43.300Z,25.11
2023-04-30T14:20:13.700Z,25.30
2023-04-30T14:22:41.894Z,25.36
2023-04-30T14:25:12.719Z,25.14
2023-04-30T14:27:41.405Z,25.08
2023-04-30T14:30:10.458Z,25.22
2023-04-30T14:32:38.752Z,25.25
2023-04-30T14:35:08.015Z,25.42
2023-04-30T14:37:36.095Z,25.24
2023-04-30T14:40:07.949Z,25.34
2023-04-30T14:42:37.555Z,25.05
2023-04-30T14:45:06.993Z,24.81
2023-04-30T14:47:35.124Z,24.60
2023-04-30T14:50:03.206Z,24.78
2023-04-30T14:52:31.578Z,24.86
2023-04-30T14:54:59.660Z,24.76
2023-04-30T14:57:28.069Z,24.89
2023-04-30T14:59:59.502Z,25.06
2023-04-30T15:02:27.742Z,25.20
2023-04-30T15:04:55.859Z,25.01
2023-04-30T15:07:24.257Z,25.12
2023-04-30T15:09:52.906Z,25.46
2023-04-30T15:12:22.322Z,26.25
2023-04-30T15:14:50.611Z,27.03
2023-04-30T15:17:20.370Z,27.87
2023-04-30T15:19:48.480Z,28.60
2023-04-30T15:22:17.400Z,29.33
2023-04-30T15:24:45.587Z,29.42
2023-04-30T15:27:13.882Z,29.35
2023-04-30T15:29:42.272Z,29.63
2023-04-30T15:32:10.557Z,29.60
2023-04-30T15:34:40.066Z,29.90
2023-04-30T15:37:09.087Z,30.51
2023-04-30T15:39:37.144Z,30.87
2023-04-30T15:42:05.279Z,31.19
2023-04-30T15:44:33.495Z,31.32
2023-04-30T15:47:02.270Z,31.27
2023-04-30T15:49:30.373Z,31.22
2023-04-30T15:51:59.931Z,30.90
2023-04-30T15:54:28.054Z,30.78
2023-04-30T15:56:56.114Z,31.07
2023-04-30T15:59:24.603Z,31.48
2023-04-30T16:01:52.743Z,31.87
2023-04-30T16:04:21.276Z,31.89
2023-04-30T16:06:50.199Z,32.08
2023-04-30T16:09:20.617Z,32.34
2023-04-30T16:11:49.285Z,32.20
2023-04-30T16:14:17.499Z,32.02
2023-04-30T16:16:45.753Z,31.75
2023-04-30T16:19:14.100Z,31.48
2023-04-30T16:21:42.318Z,31.56
2023-04-30T16:24:10.995Z,31.49
2023-04-30T16:26:40.609Z,31.41
2023-04-30T16:29:09.200Z,31.28
2023-04-30T16:31:37.402Z,31.36
2023-04-30T16:34:06.069Z,31.36
2023-04-30T16:36:34.160Z,31.52
2023-04-30T16:39:02.349Z,31.75
2023-04-30T16:41:31.029Z,31.92
2023-04-30T16:44:00.462Z,31.36
2023-04-30T16:46:28.823Z,31.26
2023-04-30T16:48:57.215Z,31.11
2023-04-30T16:51:25.213Z,31.03
2023-04-30T16:53:53.564Z,30.90
2023-04-30T16:56:22.313Z,30.62
2023-04-30T16:58:50.315Z,30.37
2023-04-30T17:01:19.817Z,30.17
2023-04-30T17:03:48.290Z,29.83
2023-04-30T17:06:16.467Z,29.64
2023-04-30T17:08:44.799Z,29.66
2023-04-30T17:11:13.293Z,29.49
2023-04-30T17:13:41.393Z,29.17
2023-04-30T17:16:09.444Z,29.37
2023-04-30T17:18:39.242Z,29.90
2023-04-30T17:21:07.418Z,30.38
2023-04-30T17:23:35.403Z,30.83
2023-04-30T17:26:04.113Z,31.16
2023-04-30T17:28:32.669Z,31.34
2023-04-30T17:31:03.325Z,31.35
2023-04-30T17:33:31.698Z,31.09
2023-04-30T17:36:01.152Z,30.39
2023-04-30T17:38:31.007Z,29.65
2023-04-30T17:40:59.303Z,28.90
2023-04-30T17:43:27.694Z,28.26
2023-04-30T17:45:57.245Z,27.55
2023-04-30T17:48:26.015Z,26.98
2023-04-30T17:50:54.191Z,26.44
2023-04-30T17:53:23.597Z,26.08
2023-04-30T17:55:52.512Z,25.68
2023-04-30T17:58:20.589Z,25.22
2023-04-30T18:00:48.770Z,24.85
2023-04-30T18:03:17.294Z,24.49
2023-04-30T18:05:45.693Z,24.17
2023-04-30T18:08:13.732Z,23.79
2023-04-30T18:10:43.469Z,23.39
2023-04-30T18:13:11.751Z,23.02
2023-04-30T18:15:39.729Z,22.67
2023-04-30T18:18:08.282Z,22.34
2023-04-30T18:20:36.533Z,21.95
2023-04-30T18:23:05.848Z,21.63
2023-04-30T18:25:36.966Z,21.35
2023-04-30T18:28:07.709Z,21.10
2023-04-30T18:30:36.895Z,20.86
2023-04-30T18:33:05.346Z,20.59
2023-04-30T18:35:34.039Z,20.35
2023-04-30T18:38:02.698Z,20.08
2023-04-30T18:40:30.972Z,19.83
2023-04-30T18:42:59.056Z,19.61
2023-04-30T18:45:29.097Z,19.42
2023-04-30T18:47:57.369Z,19.25
2023-04-30T18:50:27.358Z,19.10
2023-04-30T18:52:55.860Z,18.89
2023-04-30T18:55:24.131Z,18.66
2023-04-30T18:57:52.491Z,18.47
2023-04-30T19:00:21.031Z,18.31
2023-04-30T19:02:50.740Z,18.13
2023-04-30T19:05:19.264Z,17.96
2023-04-30T19:07:47.588Z,17.83
2023-04-30T19:10:16.189Z,17.69
2023-04-30T19:12:44.766Z,17.50
2023-04-30T19:15:15.044Z,17.37
2023-04-30T19:17:43.296Z,17.26
2023-04-30T19:20:14.109Z,17.16
2023-04-30T19:22:42.660Z,17.06
2023-04-30T19:25:11.466Z,16.98
2023-04-30T19:27:39.849Z,16.87
2023-04-30T19:30:09.371Z,16.77
2023-04-30T19:32:38.059Z,16.66
2023-04-30T19:35:07.158Z,16.56
2023-04-30T19:37:37.547Z,16.46
2023-04-30T19:40:10.435Z,16.34
2023-04-30T19:42:38.895Z,16.22
2023-04-30T19:45:08.888Z,16.11
2023-04-30T19:47:38.255Z,16.04
2023-04-30T19:50:07.929Z,15.97
2023-04-30T19:52:37.466Z,15.86
2023-04-30T19:55:06.568Z,15.74
2023-04-30T19:57:36.140Z,15.47
2023-04-30T20:00:06.032Z,15.35
2023-04-30T20:02:35.297Z,15.25
2023-04-30T20:05:06.964Z,15.18
2023-04-30T20:07:35.825Z,15.12
2023-04-30T20:10:06.438Z,15.05
2023-04-30T20:12:34.625Z,15.01
2023-04-30T20:15:03.516Z,14.98
2023-04-30T20:17:33.920Z,14.90
2023-04-30T20:20:02.790Z,14.82
2023-04-30T20:22:31.165Z,14.76
2023-04-30T20:24:59.433Z,14.66
2023-04-30T20:27:29.510Z,14.58
2023-04-30T20:29:57.751Z,14.52
2023-04-30T20:32:26.280Z,14.48
2023-04-30T20:34:54.363Z,14.37
2023-04-30T20:37:22.511Z,14.26
2023-04-30T20:39:50.825Z,14.19
2023-04-30T20:42:19.367Z,14.10
2023-04-30T20:44:49.079Z,14.04
2023-04-30T20:47:17.455Z,13.95
2023-04-30T20:49:45.672Z,13.88
2023-04-30T20:52:14.317Z,13.82
2023-04-30T20:54:43.193Z,13.73
2023-04-30T20:57:11.284Z,13.69
2023-04-30T20:59:39.323Z,13.61
2023-04-30T21:02:10.304Z,13.57
2023-04-30T21:04:38.463Z,13.51
2023-04-30T21:07:06.812Z,13.47
2023-04-30T21:09:35.808Z,13.45
2023-04-30T21:12:05.500Z,13.40
2023-04-30T21:14:33.953Z,13.32
2023-04-30T21:17:02.436Z,13.26
2023-04-30T21:19:33.681Z,13.21
2023-04-30T21:22:01.985Z,13.16
2023-04-30T21:24:31.803Z,13.14
2023-04-30T21:27:00.147Z,13.11
2023-04-30T21:29:28.566Z,13.08
2023-04-30T21:31:56.981Z,13.06
2023-04-30T21:34:25.303Z,13.03
2023-04-30T21:36:54.772Z,12.98
2023-04-30T21:39:23.239Z,12.97
2023-04-30T21:41:51.337Z,12.91
2023-04-30T21:44:20.095Z,12.87
2023-04-30T21:46:48.654Z,12.83
2023-04-30T21:49:16.854Z,12.80
2023-04-30T21:51:44.915Z,12.76
2023-04-30T21:54:14.496Z,12.73
2023-04-30T21:56:42.519Z,12.69
2023-04-30T21:59:10.692Z,12.66
2023-04-30T22:01:39.245Z,12.59
2023-04-30T22:04:08.866Z,12.53
2023-04-30T22:06:37.482Z,12.48
2023-04-30T22:09:06.194Z,12.43
2023-04-30T22:11:35.997Z,12.40
2023-04-30T22:14:05.109Z,12.37
2023-04-30T22:16:33.670Z,12.30
2023-04-30T22:19:02.107Z,12.27
2023-04-30T22:21:31.011Z,12.22
2023-04-30T22:24:00.851Z,12.18
2023-04-30T22:26:29.129Z,12.11
2023-04-30T22:28:58.861Z,12.06
2023-04-30T22:31:26.989Z,12.04
2023-04-30T22:33:55.513Z,12.02
2023-04-30T22:36:24.103Z,11.97
2023-04-30T22:38:52.215Z,11.95
2023-04-30T22:41:22.022Z,11.92
2023-04-30T22:43:50.318Z,11.90
2023-04-30T22:46:20.127Z,11.90
2023-04-30T22:48:48.926Z,11.86
2023-04-30T22:51:18.102Z,11.83
2023-04-30T22:53:46.145Z,11.81
2023-04-30T22:56:14.391Z,11.78
2023-04-30T22:58:42.529Z,11.74
2023-04-30T23:01:10.720Z,11.67
2023-04-30T23:03:40.871Z,11.59
2023-04-30T23:06:09.043Z,11.48
2023-04-30T23:08:37.096Z,11.35
2023-04-30T23:11:06.122Z,11.25
2023-04-30T23:13:34.532Z,11.20
2023-04-30T23:16:05.579Z,11.14
2023-04-30T23:18:34.596Z,11.08
2023-04-30T23:21:05.323Z,11.05
2023-04-30T23:23:33.844Z,11.01
2023-04-30T23:26:02.278Z,10.99
2023-04-30T23:28:30.644Z,10.97
2023-04-30T23:30:59.141Z,10.96
2023-04-30T23:33:27.634Z,10.94
2023-04-30T23:35:57.859Z,10.90
2023-04-30T23:38:27.639Z,10.86
2023-04-30T23:40:57.533Z,10.85
2023-04-30T23:43:32.807Z,10.81
2023-04-30T23:46:01.734Z,10.76
2023-04-30T23:48:30.483Z,10.73
2023-04-30T23:51:02.773Z,10.67
2023-04-30T23:53:32.809Z,10.54
2023-04-30T23:56:01.263Z,10.47
2023-04-30T23:58:30.893Z,10.46
